sensor_id;sensor_type;location;lat;lon;timestamp;temperature;humidity
16060;DHT22;8134;49.552;7.632;2023-04-23T08:42:53;14.80;99.90
16060;DHT22;8134;49.552;7.632;2023-04-23T08:45:21;14.90;99.90
16060;DHT22;8134;49.552;7.632;2023-04-23T08:47:47;14.90;99.90
16060;DHT22;8134;49.552;7.632;2023-04-23T08:50:14;15.00;99.90
16060;DHT22;8134;49.552;7.632;2023-04-23T08:52:45;15.00;99.90
16060;DHT22;8134;49.552;7.632;2023-04-23T08:55:11;15.10;99.90
16060;DHT22;8134;49.552;7.632;2023-04-23T08:57:39;15.10;99.90
16060;DHT22;8134;49.552;7.632;2023-04-23T09:00:06;15.10;99.90
16060;DHT22;8134;49.552;7.632;2023-04-23T09:02:38;15.10;99.90
16060;DHT22;8134;49.552;7.632;2023-04-23T09:05:04;15.10;99.90
16060;DHT22;8134;49.552;7.632;2023-04-23T09:07:30;15.10;99.90
16060;DHT22;8134;49.552;7.632;2023-04-23T09:09:55;15.20;99.90
16060;DHT22;8134;49.552;7.632;2023-04-23T09:12:21;15.30;99.90
16060;DHT22;8134;49.552;7.632;2023-04-23T09:14:48;15.40;99.90
16060;DHT22;8134;49.552;7.632;2023-04-23T09:17:13;15.40;99.90
16060;DHT22;8134;49.552;7.632;2023-04-23T09:19:39;15.40;99.90
16060;DHT22;8134;49.552;7.632;2023-04-23T09:22:06;15.40;99.90
16060;DHT22;8134;49.552;7.632;2023-04-23T09:24:32;15.50;99.90
16060;DHT22;8134;49.552;7.632;2023-04-23T09:26:58;15.60;99.90
16060;DHT22;8134;49.552;7.632;2023-04-23T09:29:42;15.70;99.90
16060;DHT22;8134;49.552;7.632;2023-04-23T13:05:52;19.30;92.60
16060;DHT22;8134;49.552;7.632;2023-04-23T13:08:18;19.30;91.40
16060;DHT22;8134;49.552;7.632;2023-04-23T13:10:43;19.30;90.70
16060;DHT22;8134;49.552;7.632;2023-04-23T14:57:36;18.80;91.70
16060;DHT22;8134;49.552;7.632;2023-04-23T15:00:03;18.60;92.50
16060;DHT22;8134;49.552;7.632;2023-04-23T15:02:29;18.30;93.40
16060;DHT22;8134;49.552;7.632;2023-04-23T15:04:55;18.10;94.40
16060;DHT22;8134;49.552;7.632;2023-04-23T15:07:20;17.70;95.10
16060;DHT22;8134;49.552;7.632;2023-04-23T15:09:46;17.60;95.80
16060;DHT22;8134;49.552;7.632;2023-04-23T15:14:57;17.10;97.00
16060;DHT22;8134;49.552;7.632;2023-04-23T15:17:23;17.00;97.30
16060;DHT22;8134;49.552;7.632;2023-04-23T15:19:49;16.90;97.40
16060;DHT22;8134;49.552;7.632;2023-04-23T15:22:18;16.90;97.90
16060;DHT22;8134;49.552;7.632;2023-04-23T15:24:45;16.90;98.00
16060;DHT22;8134;49.552;7.632;2023-04-23T15:27:11;16.90;98.10
16060;DHT22;8134;49.552;7.632;2023-04-23T15:29:39;16.80;98.80
16060;DHT22;8134;49.552;7.632;2023-04-23T15:32:06;16.80;98.70
16060;DHT22;8134;49.552;7.632;2023-04-23T15:34:34;16.80;99.30
16060;DHT22;8134;49.552;7.632;2023-04-23T15:37:00;16.80;99.90
16060;DHT22;8134;49.552;7.632;2023-04-23T15:39:26;16.80;99.80
16060;DHT22;8134;49.552;7.632;2023-04-23T15:51:06;16.80;99.90
16060;DHT22;8134;49.552;7.632;2023-04-23T15:53:31;16.70;99.90
16060;DHT22;8134;49.552;7.632;2023-04-23T16:02:26;16.60;99.90
16060;DHT22;8134;49.552;7.632;2023-04-23T16:05:07;16.70;99.90
16060;DHT22;8134;49.552;7.632;2023-04-23T16:14:05;16.60;99.90
16060;DHT22;8134;49.552;7.632;2023-04-23T16:16:31;16.60;99.90
16060;DHT22;8134;49.552;7.632;2023-04-23T16:18:57;16.60;99.90
16060;DHT22;8134;49.552;7.632;2023-04-23T16:21:22;16.60;99.90
16060;DHT22;8134;49.552;7.632;2023-04-23T16:23:48;16.50;99.90
16060;DHT22;8134;49.552;7.632;2023-04-23T16:26:13;16.40;99.90
16060;DHT22;8134;49.552;7.632;2023-04-23T16:28:39;16.40;99.90
16060;DHT22;8134;49.552;7.632;2023-04-23T16:31:05;16.30;99.90
16060;DHT22;8134;49.552;7.632;2023-04-23T16:33:31;16.20;99.90
16060;DHT22;8134;49.552;7.632;2023-04-23T16:35:57;16.10;99.90
16060;DHT22;8134;49.552;7.632;2023-04-23T16:38:23;16.00;99.90
16060;DHT22;8134;49.552;7.632;2023-04-23T16:40:49;16.00;99.90
16060;DHT22;8134;49.552;7.632;2023-04-23T16:43:15;16.00;99.90
16060;DHT22;8134;49.552;7.632;2023-04-23T16:45:41;16.10;99.90
16060;DHT22;8134;49.552;7.632;2023-04-23T16:48:06;16.10;99.90
16060;DHT22;8134;49.552;7.632;2023-04-23T16:50:32;16.10;99.90
16060;DHT22;8134;49.552;7.632;2023-04-23T16:52:57;16.00;99.90
16060;DHT22;8134;49.552;7.632;2023-04-23T16:55:23;16.00;99.90
16060;DHT22;8134;49.552;7.632;2023-04-23T16:57:49;16.10;99.90
16060;DHT22;8134;49.552;7.632;2023-04-23T17:00:14;16.20;99.90
16060;DHT22;8134;49.552;7.632;2023-04-23T17:02:40;16.30;99.90
16060;DHT22;8134;49.552;7.632;2023-04-23T17:05:07;16.40;99.90
16060;DHT22;8134;49.552;7.632;2023-04-23T17:07:32;16.40;99.90
16060;DHT22;8134;49.552;7.632;2023-04-23T17:09:58;16.30;99.90
16060;DHT22;8134;49.552;7.632;2023-04-23T17:12:23;16.30;99.90
16060;DHT22;8134;49.552;7.632;2023-04-23T17:14:49;16.20;99.90
16060;DHT22;8134;49.552;7.632;2023-04-23T17:17:15;16.20;99.90
16060;DHT22;8134;49.552;7.632;2023-04-23T17:19:40;16.30;99.90
16060;DHT22;8134;49.552;7.632;2023-04-23T17:22:06;16.30;99.90
16060;DHT22;8134;49.552;7.632;2023-04-23T17:24:33;16.20;99.90
16060;DHT22;8134;49.552;7.632;2023-04-23T17:26:58;16.20;99.90
16060;DHT22;8134;49.552;7.632;2023-04-23T17:29:25;16.20;99.90
16060;DHT22;8134;49.552;7.632;2023-04-23T17:31:50;16.20;99.90
16060;DHT22;8134;49.552;7.632;2023-04-23T17:34:16;16.20;99.90
16060;DHT22;8134;49.552;7.632;2023-04-23T17:36:41;16.20;99.90
16060;DHT22;8134;49.552;7.632;2023-04-23T17:39:07;16.20;99.90
16060;DHT22;8134;49.552;7.632;2023-04-23T17:41:32;16.10;99.90
16060;DHT22;8134;49.552;7.632;2023-04-23T17:43:58;16.10;99.90
16060;DHT22;8134;49.552;7.632;2023-04-23T17:46:23;16.10;99.90
16060;DHT22;8134;49.552;7.632;2023-04-23T17:48:49;16.10;99.90
16060;DHT22;8134;49.552;7.632;2023-04-23T17:51:14;16.10;99.90
16060;DHT22;8134;49.552;7.632;2023-04-23T17:53:40;16.10;99.90
16060;DHT22;8134;49.552;7.632;2023-04-23T17:56:13;16.10;99.90
16060;DHT22;8134;49.552;7.632;2023-04-23T17:58:38;16.10;99.90
16060;DHT22;8134;49.552;7.632;2023-04-23T18:01:05;16.10;99.90
16060;DHT22;8134;49.552;7.632;2023-04-23T18:09:37;16.00;99.90
16060;DHT22;8134;49.552;7.632;2023-04-23T18:15:53;15.90;99.90
16060;DHT22;8134;49.552;7.632;2023-04-23T18:25:06;15.80;99.90
16060;DHT22;8134;49.552;7.632;2023-04-23T18:54:48;15.30;99.90
16060;DHT22;8134;49.552;7.632;2023-04-23T19:19:28;15.10;99.90
16060;DHT22;8134;49.552;7.632;2023-04-23T19:28:09;14.90;99.90
16060;DHT22;8134;49.552;7.632;2023-04-23T19:31:13;14.90;99.90
16060;DHT22;8134;49.552;7.632;2023-04-23T19:33:57;14.90;99.90
16060;DHT22;8134;49.552;7.632;2023-04-23T19:40:01;14.90;99.90
16060;DHT22;8134;49.552;7.632;2023-04-23T19:45:30;14.90;99.90
16060;DHT22;8134;49.552;7.632;2023-04-23T19:51:37;14.70;99.90
16060;DHT22;8134;49.552;7.632;2023-04-23T19:54:04;14.70;99.90
16060;DHT22;8134;49.552;7.632;2023-04-23T19:59:32;14.70;99.90
16060;DHT22;8134;49.552;7.632;2023-04-23T20:11:28;14.60;99.90
16060;DHT22;8134;49.552;7.632;2023-04-23T20:13:53;14.50;99.90
16060;DHT22;8134;49.552;7.632;2023-04-23T20:16:19;14.50;99.90
16060;DHT22;8134;49.552;7.632;2023-04-23T20:31:00;14.40;99.90
16060;DHT22;8134;49.552;7.632;2023-04-23T20:39:42;14.30;99.90
16060;DHT22;8134;49.552;7.632;2023-04-23T20:42:50;14.20;99.90
16060;DHT22;8134;49.552;7.632;2023-04-23T21:00:30;14.00;99.90
